Tiempo atmosférico en la estación meteorológica de Girona Aeropuerto, Girona (143 m.)



Fecha
DESCASC
Temp. máxima en grados centígrados (hora)
DESCASC
Temp. mínima en grados centígrados (hora)
DESCASC
Temp. media en grados centígrados
DESCASC
Racha de viento máxima en m/sg (hora)
DESCASC
Velocidad máxima media en intervalos de 10 minutos(hora)
DESCASC
Precipitaciones diarias en mm
DESCASC
Precipitaciones de 00:00 a 06:00 en mm
DESCASC
Precipitaciones de 06:00 a 12:00 en mm
DESCASC
Precipitaciones de 12:00 a 18:00 en mm
DESCASC
Precipitaciones de 18:00 a 24:00 en mm
DESCASC
05-04-2020 19.4 (13:50) 2.3 (06:40) 10.8 11.39 (16:40) 8.61 (16:40) 0 0 0 0 0
04-04-2020 18.9 (15:20) 2.1 (07:00) 10.5 12.5 (18:40) 9.17 (16:20) 0 0 0 0 0
03-04-2020 18.3 (15:10) 0.9 (07:00) 9.6 8.89 (15:40) 6.67 (18:10) 0 0 0 0 0
02-04-2020 12.4 (17:10) 6.8 (00:00) 9.6 12.5 (11:40) 7.78 (14:10) 0.4 0.4 0 0 0
01-04-2020 10 (05:30) 8.3 (00:00) 9.2 8.89 (15:40) 5.83 (15:40) 18.7 1 3.3 10.7 3.7
31-03-2020 11.3 (16:10) 6.3 (00:00) 8.8 7.78 (13:50) 5.83 (16:40) 4.7 0 0 0 4.7
30-03-2020 13.2 (00:00) 6.6 (00:00) 9.9 7.22 (02:00) 5 (10:40) 0.6 0.1 0.1 0 0.4
29-03-2020 21.4 (15:10) 3 (00:00) 12.2 7.78 (16:30) 5.83 (16:30) 0 0 0 0 0
28-03-2020 18.1 (13:10) 6.8 (00:00) 12.5 7.78 (15:40) 5.83 (15:50) 0 0 0 0 0
27-03-2020 13.2 (13:50) -0.7 (-00:0) 6.2 7.22 (14:40) 4.72 (16:10) 0 0 0 0 0
26-03-2020 7.3 (16:10) 1 (00:00) 4.2 9.72 (16:00) 7.22 (15:50) 8.6 0 5.6 3 0
25-03-2020 14.1 (12:40) 4.4 (00:00) 9.3 8.33 (16:20) 5.56 (16:00) 0 0 0 0 0
24-03-2020 12.8 (12:40) 7.6 (00:00) 10.2 9.17 (14:40) 6.67 (16:40) 0 0 0 0 0
23-03-2020 14.2 (12:20) 10 (00:00) 12.1 8.89 (17:30) 5.83 (16:30) 25.7 14.3 10.4 0.7 0.3
22-03-2020 16.1 (13:10) 9.6 (04:10) 12.9 6.11 (14:00) 3.89 (11:40) 2.3 0 0 0 2.3
21-03-2020 17.1 (15:40) 3.4 (00:00) 10.3 5.83 (13:00) 3.89 (17:50) 0.3 0 0 0 0.3
20-03-2020 18.4 (14:50) 1.9 (00:00) 10.1 6.67 (14:50) 4.44 (16:50) 0 0 0 0 0
19-03-2020 19.4 (13:30) 3 (00:00) 11.2 6.67 (15:50) 4.17 (14:50) 0 0 0 0 0
18-03-2020 19.2 (14:30) 6.6 (00:00) 12.9 6.11 (16:40) 4.72 (16:40) 0 0 0 0 0
17-03-2020 14.8 (14:50) 9.8 (00:00) 12.3 8.33 (12:20) 6.11 (12:20) 0 0 0 0 0
16-03-2020 13.3 (11:30) 10.4 (00:00) 11.8 8.33 (23:00) 6.11 (23:50) 30.1 0 1 20.4 8.7
15-03-2020 18 (13:30) 7.4 (00:00) 12.7 13.89 (14:50) 11.11 (15:20) 0 0 0 0 0
14-03-2020 16.2 (12:20) 8.7 (00:00) 12.5 7.78 (16:00) 5.83 (16:00) 0 0 0 0 0
13-03-2020 21.2 (14:30) 8.3 (04:00) 14.8 6.67 (09:40) 4.44 (09:40) 0 0 0 0 0
12-03-2020 22.6 (15:10) 4.9 (00:00) 13.8 7.22 (13:20) 5 (13:30) 0 0 0 0 0
11-03-2020 21 (14:50) 4 (00:00) 12.5 7.22 (15:00) 4.44 (16:40) 0 0 0 0 0
10-03-2020 18.1 (14:40) 3.4 (00:00) 10.8 5.83 (11:50) 4.17 (16:10) 0 0 0 0 0
09-03-2020 15.1 (14:50) 5.6 (00:00) 10.4 9.17 (15:10) 7.78 (15:30) 0.5 0.1 0.4 0 0

Gráficas

Temp. máximas Temp. mínimas Temp. medias Precipitaciones Rachas de viento máximas Velocidades máximas media en intervalos de 10 minutos

Datos horarios

Fecha y hora oficial Temperatura (ºC) Velocidad del viento (km/h) Dirección del viento Racha (km/h) Dirección de racha Precipitación (mm) Presión (hPa) Tendencia (hPa) Humedad (%)
2020-04-07 23:00:00 12.4 10 Sur 18 Sur 0 1010.5 1 87
2020-04-07 22:00:00 13 13 Sur 21 Sur 0 1010.3 1 84
2020-04-07 21:00:00 13.5 14 Sur 22 Sur 0 1009.9 0.6 77
2020-04-07 20:00:00 14.2 15 Sur 26 Sur 0 1009.5 0.1 70
2020-04-07 19:00:00 14.8 18 Sur 32 Sur 0 1009.3 -0.3 63
2020-04-07 18:00:00 15.6 26 Sur 37 Sur 0 1009.3 -0.8 62
2020-04-07 17:00:00 16.5 24 Sur 35 Sur 0 1009.4 -1 59
2020-04-07 16:00:00 16.9 17 Sur 30 Sur 0 1009.6 -1.1 59
2020-04-07 15:00:00 17.5 23 Sur 35 Sur 0 1010.1 -1.1 61
2020-04-07 14:00:00 17.6 22 Sur 35 Sur 0 1010.4 -1 65
2020-04-07 13:00:00 18.2 17 Sur 32 Sur 0 1010.7 -0.3 66
2020-04-07 12:00:00 16.6 15 Sur 22 Sur 0 1011.2 0.4 73
2020-04-07 11:00:00 14.4 5 Sur 9 Sur 0 1011.4 1.1 74
2020-04-07 10:00:00 12.3 0 Calma 5 Oeste 0 1011 1.2 96
2020-04-07 09:00:00 9.6 2 Norte 5 Norte 0 1010.8 1.3 100
2020-04-07 08:00:00 7.6 0 Calma 8 Nordeste 0 1010.3 0.8 100
2020-04-07 07:00:00 8.1 4 Nordeste 5 Nordeste 0 1009.8 0.1 100
2020-04-07 06:00:00 8.2 4 Este 5 Nordeste 0 1009.5 -0.5 100
2020-04-07 05:00:00 7.7 4 Sudoeste 5 Oeste 0 1009.5 -0.6 99
2020-04-07 04:00:00 8.1 2 Norte -- -- 0 1009.7 -0.2 98
2020-04-07 03:00:00 8.9 2 Nordeste 5 Sudoeste 0 1010 0.2 98
2020-04-07 02:00:00 9.2 2 Sudeste 5 Sudeste 0 1010.1 0.3 98
2020-04-07 01:00:00 8.9 5 Norte 8 Norte 0 1009.9 0.3 96
2020-04-07 00:00:00 10.4 2 Sudoeste 5 Sudoeste 0 1009.8 0.9 97
2020-04-06 23:00:00 11 4 Sudeste 9 Sur 0 1009.8 1.7 92
2020-04-06 22:00:00 12 8 Sur 18 Sur 0 1009.6 2 93
2020-04-06 21:00:00 12.5 14 Sur 24 Sur 0 1008.9 1.4 88
2020-04-06 20:00:00 13.8 15 Sur 30 Sur 0 1008.1 0.6 77
2020-04-06 19:00:00 16.1 20 Sur 37 Sur 0 1007.6 -0.1 62
2020-04-06 18:00:00 17.4 28 Sur 37 Sur 0 1007.5 -0.5 40
2020-04-06 17:00:00 18.4 30 Sur 41 Sur 0 1007.5 -0.4 41
2020-04-06 16:00:00 18.6 28 Sur 41 Sur 0 1007.7 -0.2 46
2020-04-06 15:00:00 18.4 28 Sur 41 Sur 0 1008 -0.1 47
2020-04-06 14:00:00 18.5 27 Sur 37 Sur 0 1007.9 -0.2 49
2020-04-06 13:00:00 18 19 Sur 28 Sur 0 1007.9 0.3 54
2020-04-06 12:00:00 16.8 17 Sur 24 Sur 0 1008.1 1 55
2020-04-06 11:00:00 13.5 8 Sur 13 Sudoeste 0 1008.1 1.6 70
2020-04-06 10:00:00 9.4 3 Nordeste 5 Este 0 1007.6 1.6 82
2020-04-06 09:00:00 7.9 3 Nordeste 8 Sur 0 1007.1 1.4 87
2020-04-06 08:00:00 5.5 0 Calma 9 Oeste 0 1006.5 1 93
2020-04-06 07:00:00 4.7 0 Calma -- -- 0 1006 0.4 96
2020-04-06 06:00:00 4.4 5 Nordeste 9 Nordeste 0 1005.7 -0.3 96
2020-04-06 05:00:00 4.4 0 Calma 5 Sudoeste 0 1005.5 -0.5 95
2020-04-06 04:00:00 4.2 0 Calma -- -- 0 1005.6 -0.2 96
2020-04-06 03:00:00 3.5 6 Nordeste 8 Nordeste 0 1006 0.6 94
2020-04-06 02:00:00 4.3 7 Oeste 8 Oeste 0 1006 1.1 93
2020-04-06 01:00:00 5.9 2 Sur 8 Sudoeste 0 1005.8 1.4 86
2020-04-06 00:00:00 7 0 Calma 9 Sudoeste 0 1005.4 1.6 88
2020-04-05 23:00:00 8.9 7 Sudoeste 13 Sur 0 1004.9 1.5 91
2020-04-05 22:00:00 9.8 10 Sur 18 Sur 0 1004.4 1.3 84
2020-04-05 21:00:00 11.2 13 Sur 28 Sur 0 1003.8 0.6 71
2020-04-05 20:00:00 13.5 20 Sur 33 Sur 0 1003.4 0 63
2020-04-05 19:00:00 15.9 24 Sur 39 Sur 0 1003.1 -0.6 48
2020-04-05 18:00:00 17.3 30 Sur 39 Sur 0 1003.2 -0.9 40
2020-04-05 17:00:00 18.1 30 Sur 41 Sur 0 1003.4 -1.2 35
2020-04-05 16:00:00 18.9 29 Sur 39 Sur 0 1003.7 -1.4 33
2020-04-05 15:00:00 19.3 24 Sur 35 Sur 0 1004.1 -1.5 34
2020-04-05 14:00:00 19.3 24 Sur 33 Sur 0 1004.6 -1.1 31
2020-04-05 13:00:00 18.8 18 Sur 28 Sudoeste 0 1005.1 -0.5 37
2020-04-05 12:00:00 17.5 14 Sur 22 Sudoeste 0 1005.6 0.1 48
2020-04-05 11:00:00 14.6 4 Sur 9 Sur 0 1005.7 0.8 57
2020-04-05 10:00:00 10.7 4 Sur 8 Sur 0 1005.6 1.3 79
2020-04-05 09:00:00 6.5 3 Sudoeste 5 Sudoeste 0 1005.5 1.4 90
2020-04-05 08:00:00 3.1 0 Calma 5 Sudeste 0 1004.9 0.7 99
2020-04-05 07:00:00 3 0 Calma 5 Nordeste 0 1004.3 -0.1 99
2020-04-05 06:00:00 2.7 4 Nordeste 8 Nordeste 0 1004.1 -0.5 97
2020-04-05 05:00:00 3.6 0 Calma 8 Sudoeste 0 1004.2 -0.7 97
2020-04-05 04:00:00 4 2 Sudoeste -- -- 0 1004.4 -0.5 95
2020-04-05 03:00:00 5.4 2 Sudeste 4 Sur 0 1004.6 0 93
2020-04-05 02:00:00 7 0 Calma 8 Sur 0 1004.9 0.3 90
2020-04-05 01:00:00 7.9 5 Sudeste -- -- 0 1004.9 0.7 88
2020-04-05 00:00:00 8.7 0 Calma 13 Sur 0 1004.6 1.2 82
2020-04-04 23:00:00 9.5 9 Sur 13 Sur 0 1004.6 1.7 81
2020-04-04 22:00:00 9.9 7 Sur 17 Sur 0 1004.2 1.6 76
2020-04-04 21:00:00 11.8 13 Sur 28 Sur 0 1003.4 1 66
2020-04-04 20:00:00 13.6 21 Sur 41 Sur 0 1002.9 0.3 61
2020-04-04 19:00:00 15.4 32 Sur 45 Sur 0 1002.6 -0.3 61
2020-04-04 18:00:00 16.8 27 Sur 41 Sur 0 1002.4 -0.8 57
2020-04-04 17:00:00 17.8 28 Sur 42 Sur 0 1002.6 -0.8 53
2020-04-04 16:00:00 18.3 28 Sur 41 Sur 0 1002.9 -1.1 57
2020-04-04 15:00:00 18.7 27 Sur 37 Sur 0 1003.2 -1.2 52
2020-04-04 14:00:00 18.4 24 Sur 33 Sur 0 1003.4 -1.3 48
2020-04-04 13:00:00 17.8 17 Sur 30 Sur 0 1004 -0.2 53
2020-04-04 12:00:00 16.2 8 Sur 15 Sudeste 0 1004.4 0.5 58
2020-04-04 11:00:00 14.7 4 Sudeste 11 Sudeste 0 1004.7 1.4 60
2020-04-04 10:00:00 11.2 0 Calma 5 Sur 0 1004.2 1.3 83
2020-04-04 09:00:00 6.6 4 Sur 5 Sudoeste 0 1003.9 1.4 99
2020-04-04 08:00:00 4.4 4 Noroeste 8 Noroeste 0 1003.3 0.9 100
2020-04-04 07:00:00 2.2 6 Nordeste 9 Nordeste 0 1002.9 0.6 99
2020-04-04 06:00:00 2.9 0 Calma 8 Oeste 0 1002.5 -0.1 98
2020-04-04 05:00:00 3.6 4 Oeste 9 Oeste 0 1002.4 -0.1 98
2020-04-04 04:00:00 3.8 0 Calma 4 Este 0 1002.3 -0.2 96
2020-04-04 03:00:00 4.9 3 Sur 4 Sur 0 1002.6 0.3 97
2020-04-04 02:00:00 5.5 0 Calma 5 Sur 0 1002.5 0.4 96
2020-04-04 01:00:00 6.6 0 Calma 5 Nordeste 0 1002.5 0.7 96
2020-04-04 00:00:00 6.7 5 Nordeste 9 Nordeste 0 1002.3 1.2 94
2020-04-03 23:00:00 8.3 0 Calma 5 Oeste 0 1002.1 1.5 88
2020-04-03 22:00:00 10.3 4 Sur 13 Sur 0 1001.8 1.6 84
2020-04-03 21:00:00 11.5 10 Sur 18 Sur 0 1001.1 1.5 77
2020-04-03 20:00:00 12.6 13 Sur 26 Sur 0 1000.6 1.3 72
2020-04-03 19:00:00 13.2 21 Sur 32 Sur 0 1000.2 1.2 70
2020-04-03 18:00:00 14.4 21 Sur 30 Sur 0 999.6 0.7 65
2020-04-03 17:00:00 16.4 23 Sur 32 Sur 0 999.3 0.2 60
2020-04-03 16:00:00 16.8 19 Sur 32 Sur 0 999 -0.5 59
2020-04-03 15:00:00 18.2 19 Sur 28 Sur 0 998.9 -0.7 54
2020-04-03 14:00:00 17.7 12 Sudeste 21 Sudeste 0 999.1 -0.3 49
2020-04-03 13:00:00 16.8 5 Sur 15 Sur 0 999.5 0.2 50
2020-04-03 12:00:00 15.1 6 Nordeste 21 Nordeste 0 999.6 0.6 54
2020-04-03 11:00:00 13.5 12 Nordeste 17 Norte 0 999.4 0.7 63
2020-04-03 10:00:00 11.2 3 Nordeste 11 Oeste 0 999.3 1.3 85
2020-04-03 09:00:00 6 8 Noroeste 11 Noroeste 0 999 1.7 100
2020-04-03 08:00:00 1.8 7 Nordeste 15 Nordeste 0 998.7 1.4 100
2020-04-03 07:00:00 1.1 4 Norte 8 Norte 0 998 0.7 100
2020-04-03 06:00:00 2.1 2 Norte 5 Oeste 0 997.3 -0.3 100
2020-04-03 05:00:00 2.6 4 Oeste 8 Oeste 0 997.3 -0.5 100
2020-04-03 04:00:00 3 0 Calma 4 Sur 0 997.3 -0.6 99
2020-04-03 03:00:00 3.8 2 Este 8 Este 0 997.6 -0.6 98
2020-04-03 02:00:00 4.6 0 Calma 5 Este 0 997.8 -0.3 97
2020-04-03 01:00:00 5.5 4 Noroeste 13 Noroeste 0 997.9 0 94
2020-04-03 00:00:00 6.9 8 Noroeste 13 Noroeste 0 998.2 0.7 89
2020-04-02 23:00:00 7.6 10 Norte 15 Noroeste 0 998.1 1.2 87
2020-04-02 22:00:00 7.8 9 Norte 13 Norte 0 997.9 1 88
2020-04-02 21:00:00 9.2 8 Norte 17 Norte 0 997.5 0.7 84
2020-04-02 20:00:00 10.1 14 Nordeste 22 Norte 0 996.9 0.1 79
2020-04-02 19:00:00 11.3 18 Norte 33 Nordeste 0 996.9 -0.3 75
2020-04-02 18:00:00 11.9 19 Nordeste 32 Nordeste 0 996.8 -0.6 75
2020-04-02 17:00:00 12.1 20 Nordeste 32 Norte 0 996.8 -0.9 75
2020-04-02 16:00:00 11 19 Norte 35 Norte 0 997.2 -0.8 77
2020-04-02 15:00:00 11 21 Norte 37 Nordeste 0 997.4 -0.5 79
2020-04-02 14:00:00 10.7 27 Norte 39 Norte 0 997.7 0.1 78
2020-04-02 13:00:00 11.6 26 Nordeste 42 Norte 0 998 0.8 73
2020-04-02 12:00:00 11.1 24 Norte 45 Norte 0 997.9 1 75
2020-04-02 11:00:00 10.2 25 Norte 35 Norte 0 997.6 0.9 80
2020-04-02 10:00:00 9.4 16 Norte 30 Norte 0 997.2 0.4 87
2020-04-02 09:00:00 8.4 14 Norte 22 Norte 0 996.9 0.1 92
2020-04-02 08:00:00 7.8 11 Norte 24 Norte 0 996.7 0 97
2020-04-02 07:00:00 7.4 16 Norte 24 Norte 0 996.8 -0.6 99
2020-04-02 06:00:00 7.5 14 Norte 28 Norte 0 996.8 -0.9 98
2020-04-02 05:00:00 7.6 17 Norte 26 Norte 0 996.7 -1.4 97
2020-04-02 04:00:00 7.8 14 Norte 26 Norte 0.3 997.4 -1.3 92
2020-04-02 03:00:00 7.8 12 Norte 21 Norte 0.1 997.7 -1.3 95
2020-04-02 02:00:00 7.9 10 Norte 17 Norte 0 998.1 -0.9 91
2020-04-02 01:00:00 8.1 8 Norte 21 Norte 0 998.7 -0.6 94
2020-04-02 00:00:00 8.4 14 Norte 28 Norte 0.1 999 0 98
2020-04-01 23:00:00 8.3 17 Norte 28 Norte 0.3 999 0.2 100
2020-04-01 22:00:00 8.5 14 Norte 24 Norte 1.3 999.3 0.3 100
2020-04-01 21:00:00 8.5 16 Norte 24 Norte 0.7 999 0 100
2020-04-01 20:00:00 8.5 15 Norte 24 Norte 0.8 998.8 -0.4 99
2020-04-01 19:00:00 8.7 15 Norte 26 Norte 0.5 999 -0.5 98
2020-04-01 18:00:00 8.8 18 Norte 30 Norte 1.3 999 -1.2 99
2020-04-01 17:00:00 8.8 18 Norte 30 Norte 1.2 999.2 -1.5 99
2020-04-01 16:00:00 9.1 19 Norte 32 Nordeste 1.5 999.5 -1.7 99
2020-04-01 15:00:00 8.9 18 Norte 30 Norte 1 1000.2 -1.5 100
2020-04-01 14:00:00 9.1 19 Norte 28 Norte 2.6 1000.7 -0.7 100
2020-04-01 13:00:00 8.9 18 Norte 24 Norte 3.1 1001.2 -0.1 100
2020-04-01 12:00:00 9 17 Norte 30 Norte 0.9 1001.7 0.6 99
2020-04-01 11:00:00 9 18 Norte 28 Norte 0.4 1001.4 0.6 99
2020-04-01 10:00:00 9.1 15 Norte 24 Norte 0.8 1001.3 0.7 97
2020-04-01 09:00:00 9.2 15 Norte 22 Norte 0 1001.1 0.7 96
2020-04-01 08:00:00 9.3 14 Norte 28 Nordeste 1.2 1000.8 0.5 97
2020-04-01 07:00:00 9.9 11 Nordeste 21 Nordeste 0 1000.6 0 95
2020-04-01 06:00:00 10 12 Nordeste 21 Este 0.1 1000.4 -0.3 97
2020-04-01 05:00:00 9.8 12 Nordeste 18 Norte 0 1000.3 -0.6 99
2020-04-01 04:00:00 9.5 13 Norte 18 Norte 0 1000.6 -0.2 100
2020-04-01 03:00:00 9 13 Norte 18 Norte 0.2 1000.7 0 100
2020-04-01 02:00:00 8.8 12 Norte 18 Norte 0.7 1000.9 0.1 99
2020-04-01 01:00:00 8.8 9 Nordeste 11 Nordeste 0 1000.8 0.1 99
2020-04-01 00:00:00 8.9 9 Norte 17 Norte 1.6 1000.7 0.4 96
2020-03-31 23:00:00 9 5 Noroeste 11 Noroeste 1.9 1000.8 0.8 96
2020-03-31 22:00:00 8.8 6 Norte 17 Norte 0.7 1000.7 1.5 92
2020-03-31 21:00:00 9.2 11 Norte 17 Norte 0.5 1000.3 1.2 88
2020-03-31 20:00:00 10 6 Norte 22 Norte 0 1000 0.7 82
2020-03-31 19:00:00 10.3 14 Norte 24 Norte 0 999.2 0 83
2020-03-31 18:00:00 10.8 18 Nordeste 24 Norte 0 999.1 -0.1 79
2020-03-31 17:00:00 10.9 12 Nordeste 26 Nordeste 0 999.3 0.1 78
2020-03-31 16:00:00 11 13 Nordeste 18 Nordeste 0 999.2 -0.2 77
2020-03-31 15:00:00 11.1 16 Nordeste 24 Nordeste 0 999.2 -0.3 72
2020-03-31 14:00:00 10.7 17 Nordeste 28 Nordeste 0 999.2 -0.4 73
2020-03-31 13:00:00 10.5 17 Nordeste 24 Nordeste 0 999.4 -0.1 73
2020-03-31 12:00:00 9.8 14 Nordeste 22 Nordeste 0 999.5 0 74
2020-03-31 11:00:00 10.4 15 Nordeste 26 Norte 0 999.6 0.4 70
2020-03-31 10:00:00 9.3 16 Nordeste 26 Nordeste 0 999.5 0.5 73
2020-03-31 09:00:00 8.1 12 Norte 17 Nordeste 0 999.5 0.7 82
2020-03-31 08:00:00 7.3 8 Norte 18 Norte 0 999.2 0.4 87
2020-03-31 07:00:00 7.2 6 Norte 15 Norte 0 999 0.2 90
2020-03-31 06:00:00 7.2 10 Norte 15 Norte 0 998.8 -0.4 88
2020-03-31 05:00:00 7 10 Norte 17 Norte 0 998.8 -0.6 95
2020-03-31 04:00:00 6.9 8 Norte 13 Norte 0 998.8 -0.5 95
2020-03-31 03:00:00 6.9 8 Norte 11 Norte 0 999.2 -0.4 97
2020-03-31 02:00:00 6.7 6 Nordeste 8 Este 0 999.4 -0.3 96
2020-03-31 01:00:00 6.5 4 Noroeste 15 Nordeste 0 999.3 -0.1 93
2020-03-31 00:00:00 6.8 7 Norte 11 Norte 0 999.6 0.3 95
2020-03-30 23:00:00 7.2 7 Norte 11 Norte 0 999.7 0.9 95
2020-03-30 22:00:00 7.4 5 Norte 8 Norte 0 999.4 0.9 96
2020-03-30 21:00:00 7.6 0 Calma 5 Nordeste 0 999.3 0.7 93
2020-03-30 20:00:00 7.9 5 Norte 11 Norte 0.4 998.8 0 90
2020-03-30 19:00:00 8.4 7 Norte 13 Norte 0 998.5 -0.5 82
2020-03-30 18:00:00 8.7 9 Norte 13 Norte 0 998.6 -0.6 80
2020-03-30 17:00:00 8.7 8 Norte 13 Norte 0 998.8 -0.9 79
2020-03-30 16:00:00 8 5 Norte 15 Nordeste 0 999 -0.5 82
2020-03-30 15:00:00 7.5 12 Nordeste 17 Nordeste 0 999.2 -0.3 84
2020-03-30 14:00:00 7.3 6 Norte 13 Norte 0 999.7 0.8 84
2020-03-30 13:00:00 7.1 4 Norte 17 Norte 0 999.5 1.1 84
2020-03-30 12:00:00 7 9 Nordeste 17 Norte 0 999.5 1.7 86
2020-03-30 11:00:00 7.1 12 Norte 26 Nordeste 0.1 998.9 1.5 86
2020-03-30 10:00:00 6.6 13 Norte 26 Nordeste 0 998.4 1.2 86
2020-03-30 09:00:00 7.7 13 Norte 21 Norte 0 997.8 0.7 83
2020-03-30 08:00:00 8.1 14 Norte 26 Norte 0 997.4 -0.2 85
2020-03-30 07:00:00 8.6 6 Norte 11 Norte 0 997.2 -0.6 93
2020-03-30 06:00:00 8.8 2 Norte 8 Norte 0 997.1 -1 93
2020-03-30 05:00:00 8.8 5 Noroeste 9 Norte 0 997.6 -0.7 92
2020-03-30 04:00:00 9.4 7 Norte 21 Nordeste 0 997.8 -0.8 89
2020-03-30 03:00:00 10.1 14 Nordeste 22 Nordeste 0 998.1 -0.1 88
2020-03-30 02:00:00 11.5 15 Este 26 Este 0.1 998.3 0 89
2020-03-30 01:00:00 12.3 5 Sudoeste 17 Sudeste 0 998.6 0.3 81
2020-03-30 00:00:00 13.2 9 Norte 18 Norte 0 998.2 0.5 64
2020-03-29 23:00:00 13.2 7 Sudeste 15 Sudeste 0 998.3 0.9 63
2020-03-29 22:00:00 12.4 4 Sudoeste 13 Sur 0 998.3 1.1 72
2020-03-29 21:00:00 13.1 9 Sur 13 Sur 0 997.7 0.6 71
2020-03-29 20:00:00 14.1 6 Sudoeste 26 Sudoeste 0 997.4 0.4 71
2020-03-29 19:00:00 16 17 Sudoeste 28 Sudoeste 0 997.2 0 60
2020-03-29 18:00:00 17.6 12 Sudoeste 26 Sur 0 997.1 -0.4 57
2020-03-29 17:00:00 19.9 15 Sur 28 Sur 0 997 -1.2 48
2020-03-29 16:00:00 19.6 10 Sudeste 22 Este 0 997.2 -1.7 37
2020-03-29 15:00:00 20.8 12 Sur 21 Sur 0 997.5 -1.8 37
2020-03-29 14:00:00 19.6 9 Sur 17 Sudeste 0 998.2 -1.5 46
2020-03-29 13:00:00 18.4 8 Este 17 Sudeste 0 998.9 -0.8 49
2020-03-29 12:00:00 15.7 8 Nordeste 13 Nordeste 0 999.3 -0.3 62
2020-03-29 11:00:00 10.9 4 Nordeste 9 Nordeste 0 999.7 -0.1 84
2020-03-29 10:00:00 8.4 0 Calma 8 Nordeste 0 999.7 0.2 96
2020-03-29 09:00:00 6.3 3 Este 5 Este 0 999.6 0 100
2020-03-29 08:00:00 4.6 4 Oeste 8 Norte 0 999.8 -0.1 100
2020-03-29 07:00:00 3.6 0 Calma 8 Norte 0 999.5 -0.7 99
2020-03-29 06:00:00 4 5 Nordeste 5 Nordeste 0 999.6 -0.8 98
2020-03-29 05:00:00 4.7 0 Calma 5 Noroeste 0 999.9 -0.9 97
2020-03-29 03:00:00 5.6 0 Calma 5 Oeste 0 1000.4 -0.3 97
2020-03-29 01:00:00 5.6 2 Nordeste -- -- 0 1000.8 0.1 94
2020-03-29 00:00:00 6.9 0 Calma 5 Oeste 0 1000.8 0.1 91
2020-03-28 23:00:00 7.8 0 Calma 5 Sudeste 0 1000.7 0.2 92
2020-03-28 22:00:00 8.3 5 Nordeste 8 Nordeste 0 1000.7 0.7 90
2020-03-28 21:00:00 9.9 0 Calma 9 Sudoeste 0 1000.7 1 84
2020-03-28 20:00:00 11.3 7 Sudoeste 13 Sur 0 1000.5 0.9 77
2020-03-28 19:00:00 12.7 12 Sur 18 Sur 0 1000 0.2 71
2020-03-28 18:00:00 14 12 Sur 21 Sur 0 999.7 -0.3 67
2020-03-28 17:00:00 14.7 14 Sur 22 Sur 0 999.6 -0.8 61
2020-03-28 16:00:00 15.4 18 Sur 28 Sudoeste 0 999.8 -1.1 63
2020-03-28 15:00:00 17.4 7 Sur 13 Sur 0 1000 -1.4 47
2020-03-28 14:00:00 17.5 8 Sur 15 Sudoeste 0 1000.4 -1.1 47
2020-03-28 13:00:00 17.7 5 Este 18 Nordeste 0 1000.9 -0.8 43
2020-03-28 12:00:00 16.7 3 Este 17 Norte 0 1001.4 0.2 43
2020-03-28 11:00:00 15.1 6 Nordeste 17 Norte 0 1001.5 0.6 50
2020-03-28 10:00:00 13.8 8 Nordeste 13 Nordeste 0 1001.7 1.2 59
2020-03-28 09:00:00 9.6 4 Norte 8 Norte 0 1001.2 1.1 88
2020-03-28 08:00:00 7.7 2 Sur 8 Sur 0 1000.9 1 94
2020-03-28 07:00:00 7.5 4 Norte -- -- 0 1000.5 0.8 93
2020-03-28 06:00:00 7.1 3 Noroeste 5 Noroeste 0 1000.1 0.4 95
2020-03-28 05:00:00 7.1 0 Calma 13 Noroeste 0 999.9 -0.3 93
2020-03-28 04:00:00 8.3 7 Norte 13 Norte 0 999.7 -0.5 77
2020-03-28 03:00:00 8.5 8 Norte 15 Noroeste 0 999.7 -0.4 81
2020-03-28 02:00:00 7.1 3 Este 8 Oeste 0 1000.2 0.1 97
2020-03-28 01:00:00 7.2 3 Sur 8 Este 0 1000.2 0.4 96
2020-03-28 00:00:00 7.1 4 Norte 9 Norte 0 1000.1 0.8 90
2020-03-27 23:00:00 7.8 4 Noroeste 9 Noroeste 0 1000.1 1.3 90
2020-03-27 22:00:00 7.8 4 Sudoeste 8 Sudoeste 0 999.8 1.4 92
2020-03-27 21:00:00 8.1 5 Nordeste -- -- 0 999.3 1.3 91
2020-03-27 20:00:00 8.8 0 Calma 8 Sudoeste 0 998.8 1.3 84
2020-03-27 19:00:00 9.8 4 Sur 13 Sur 0 998.4 0.6 76
2020-03-27 18:00:00 10.7 8 Sur 15 Sur 0 998 0.3 71
2020-03-27 17:00:00 11.4 10 Sudoeste 24 Nordeste 0 997.5 0 66
2020-03-27 16:00:00 12.4 13 Este 21 Nordeste 0 997.8 0.3 54
2020-03-27 15:00:00 12.4 5 Norte 26 Nordeste 0 997.7 -0.1 51
2020-03-27 14:00:00 12.7 5 Sur 11 Sur 0 997.5 -0.6 53
2020-03-27 13:00:00 12.1 7 Sur 11 Sudeste 0 997.5 -0.4 59
2020-03-27 12:00:00 10.8 5 Sur 11 Sur 0 997.8 0.4 67
2020-03-27 11:00:00 6.6 5 Sudoeste 9 Sudoeste 0 998.1 1 91
2020-03-27 10:00:00 4.7 2 Sudoeste 8 Sur 0 997.9 1.2 91
2020-03-27 09:00:00 3.8 4 Sur 8 Este 0 997.4 0.8 98
2020-03-27 08:00:00 0.6 3 Norte 8 Nordeste 0 997.1 0.8 100
2020-03-27 07:00:00 0 0 Calma 4 Este 0 996.7 0.3 100
2020-03-27 06:00:00 -0.3 2 Este 5 Nordeste 0 996.6 0 100
2020-03-27 05:00:00 -0.4 0 Calma 4 Este 0 996.3 -0.6 100
2020-03-27 04:00:00 -0.1 2 Sudeste 8 Nordeste 0 996.4 -0.4 100
2020-03-27 03:00:00 0.2 3 Sur 8 Sur 0 996.6 -0.4 99
2020-03-27 02:00:00 0.6 3 Sur 8 Nordeste 0 996.9 -0.2 98
2020-03-27 01:00:00 1.9 4 Este 15 Noroeste 0 996.8 -0.2 94
2020-03-27 00:00:00 2 0 Calma 11 Noroeste 0 997 0.1 96
2020-03-26 23:00:00 2.3 5 Nordeste 8 Norte 0 997.1 0.6 98
2020-03-26 22:00:00 2.8 5 Norte 13 Noroeste 0 997 1.1 94
2020-03-26 21:00:00 4.3 8 Noroeste 15 Noroeste 0 996.9 1.5 92
2020-03-26 20:00:00 4.1 7 Oeste 15 Norte 0 996.5 1.3 94
2020-03-26 19:00:00 6.1 10 Norte 21 Norte 0 995.9 0.9 89
2020-03-26 18:00:00 7.2 10 Norte 18 Nordeste 0 995.4 0.5 86
2020-03-26 17:00:00 6.6 14 Norte 35 Norte 0.1 995.2 0.2 89
2020-03-26 16:00:00 6.9 24 Norte 35 Norte 0 995 0.4 91
2020-03-26 15:00:00 6 8 Norte 26 Norte 1.6 994.9 0.2 94
2020-03-26 14:00:00 5.9 21 Norte 32 Norte 0.4 995 0.6 94
2020-03-26 13:00:00 6.2 15 Norte 28 Norte 0.9 994.6 0.9 93
2020-03-26 12:00:00 4.4 14 Norte 22 Norte 2.8 994.7 1.4 97
2020-03-26 11:00:00 4.5 14 Norte 28 Norte 2.8 994.4 1.2 96
2020-03-26 10:00:00 5.9 19 Norte 30 Nordeste 0 993.7 0.6 94
2020-03-26 09:00:00 6.3 18 Norte 32 Norte 0 993.3 0.2 89
2020-03-26 08:00:00 5.6 10 Norte 18 Norte 0 993.2 -0.3 92
2020-03-26 07:00:00 4.5 6 Nordeste 17 Norte 0 993.1 -0.5 91
2020-03-26 06:00:00 4.4 9 Norte 17 Norte 0 993.1 -0.9 89
2020-03-26 05:00:00 3.7 8 Norte 17 Norte 0 993.5 -0.9 90
2020-03-26 04:00:00 3.1 15 Norte 21 Norte 0 993.6 -1.9 93
2020-03-26 03:00:00 1.3 10 Nordeste 13 Nordeste 0 994 -2 97
2020-03-26 02:00:00 1.6 7 Sudoeste 9 Sudoeste 0 994.4 -2.4 93
2020-03-26 01:00:00 3.5 4 Oeste 9 Sudoeste 0 995.5 -1.9 89
2020-03-26 00:00:00 4.4 5 Sudoeste 13 Oeste 0 996 -2.3 87
2020-03-25 23:00:00 4.8 4 Sur 15 Sudoeste 0 996.8 -1.5 86
2020-03-25 22:00:00 5.9 8 Sudoeste 15 Sudoeste 0 997.4 -0.9 87
2020-03-25 21:00:00 5.5 8 Sur 13 Sur 0 998.3 -0.6 89
2020-03-25 20:00:00 6.3 12 Sur 18 Sudoeste 0 998.3 -0.8 82
2020-03-25 19:00:00 7.7 13 Sudoeste 26 Sudoeste 0 998.3 -0.8 73
2020-03-25 18:00:00 8.8 13 Sudoeste 24 Sur 0 998.9 -0.7 68
2020-03-25 17:00:00 9.5 17 Sur 30 Sur 0 999.1 -1.1 62
2020-03-25 16:00:00 10.6 20 Sur 26 Sur 0 999.1 -1.6 60
2020-03-25 15:00:00 10.5 18 Sudeste 26 Sudeste 0 999.6 -1.6 61
2020-03-25 14:00:00 11.7 17 Sur 26 Sur 0 1000.2 -1.4 57
2020-03-25 13:00:00 12.3 13 Sudeste 24 Sur 0 1000.7 -1.3 51
2020-03-25 12:00:00 12.7 6 Este 17 Sudoeste 0 1001.2 -1 39
2020-03-25 11:00:00 11.3 5 Este 15 Nordeste 0 1001.6 -0.7 47
2020-03-25 10:00:00 11.7 8 Nordeste 18 Norte 0 1002 -0.2 46
2020-03-25 09:00:00 8.8 6 Noroeste 11 Noroeste 0 1002.2 0 62
2020-03-25 08:00:00 7.3 7 Norte 17 Noroeste 0 1002.3 0 69
2020-03-25 07:00:00 5.5 9 Noroeste 18 Noroeste 0 1002.2 -0.4 71
2020-03-25 06:00:00 5.9 10 Noroeste 21 Oeste 0 1002.2 -1.1 73
2020-03-25 05:00:00 5.9 5 Norte 11 Norte 0 1002.3 -1.5 74
2020-03-25 04:00:00 6.7 9 Norte 17 Norte 0 1002.6 -1.5 68
2020-03-25 03:00:00 7.1 11 Norte 17 Norte 0 1003.3 -1 73
2020-03-25 02:00:00 7.2 7 Norte 15 Norte 0 1003.8 -0.8 76
2020-03-25 01:00:00 7.4 8 Norte 15 Norte 0 1004.1 -0.6 76
2020-03-25 00:00:00 7.6 9 Norte 15 Norte 0 1004.3 -0.4 75
2020-03-24 23:00:00 7.8 9 Norte 15 Norte 0 1004.6 0.4 75
2020-03-24 22:00:00 8 7 Norte 17 Norte 0 1004.7 0.5 76
2020-03-24 21:00:00 8.2 11 Norte 17 Nordeste 0 1004.7 0.9 73
2020-03-24 20:00:00 8.4 12 Nordeste 26 Nordeste 0 1004.2 0.3 73
2020-03-24 19:00:00 9 14 Nordeste 28 Nordeste 0 1004.2 0.2 70
2020-03-24 18:00:00 9.6 17 Nordeste 28 Nordeste 0 1003.8 -0.3 69
2020-03-24 17:00:00 10 17 Nordeste 33 Nordeste 0 1003.9 -0.8 70
2020-03-24 16:00:00 11.3 19 Este 30 Este 0 1004 -1 68
2020-03-24 15:00:00 12.3 17 Este 33 Nordeste 0 1004.1 -1 67
2020-03-24 14:00:00 12.6 20 Nordeste 32 Nordeste 0 1004.7 -0.7 67
2020-03-24 13:00:00 12.3 16 Nordeste 26 Nordeste 0 1005 -0.8 66
2020-03-24 12:00:00 12 18 Nordeste 28 Norte 0 1005.1 -0.7 69
2020-03-24 11:00:00 12 15 Nordeste 24 Nordeste 0 1005.4 -0.3 73
2020-03-24 10:00:00 10.8 13 Nordeste 18 Nordeste 0 1005.8 0.4 77
2020-03-24 09:00:00 10.1 12 Norte 17 Nordeste 0 1005.8 0.3 84
2020-03-24 08:00:00 9.4 6 Norte 13 Norte 0 1005.7 0.4 92
2020-03-24 07:00:00 9.1 9 Norte 15 Norte 0 1005.4 -0.2 93
2020-03-24 06:00:00 9.1 8 Norte 15 Norte 0 1005.5 -0.1 94
2020-03-24 05:00:00 9 10 Norte 17 Norte 0 1005.3 -0.6 96
2020-03-24 04:00:00 9.4 11 Norte 15 Norte 0 1005.6 -0.3 95
2020-03-24 03:00:00 9.8 12 Norte 17 Norte 0 1005.6 -0.4 94
2020-03-24 02:00:00 9.6 7 Norte 13 Norte 0 1005.9 -0.2 95
2020-03-24 01:00:00 9.5 10 Norte 18 Norte 0 1005.9 -0.1 94
2020-03-24 00:00:00 10 10 Norte 17 Norte 0 1006 0.1 94
2020-03-23 23:00:00 10.3 9 Norte 17 Norte 0 1006.1 0.4 93
2020-03-23 22:00:00 10.4 12 Norte 18 Norte 0 1006 0.9 94
2020-03-23 21:00:00 10.4 11 Norte 17 Norte 0 1005.9 1.5 96
2020-03-23 20:00:00 10.5 9 Norte 21 Norte 0.3 1005.7 1.5 96
2020-03-23 19:00:00 11.3 17 Norte 26 Nordeste 0 1005.1 1 91
2020-03-23 18:00:00 11.9 20 Nordeste 32 Nordeste 0 1004.4 0.4 89
2020-03-23 17:00:00 12.5 17 Nordeste 30 Nordeste 0 1004.2 -0.3 88
2020-03-23 16:00:00 13.1 17 Nordeste 28 Nordeste 0 1004.1 -0.6 90
2020-03-23 15:00:00 14.1 14 Nordeste 24 Norte 0 1004 -0.6 87
2020-03-23 14:00:00 12.8 15 Norte 26 Nordeste 0.7 1004.5 0.1 94
2020-03-23 13:00:00 13 19 Norte 26 Norte 0 1004.7 0.4 89
2020-03-23 12:00:00 13.3 13 Norte 24 Norte 0.1 1004.6 1 89
2020-03-23 11:00:00 11.9 12 Norte 21 Norte 0.7 1004.4 1.6 97
2020-03-23 10:00:00 11.3 14 Norte 22 Norte 0.9 1004.3 2 98
2020-03-23 09:00:00 11.1 13 Norte 24 Norte 2.9 1003.6 1.7 100
2020-03-23 08:00:00 10.7 14 Norte 21 Norte 4.2 1002.8 1.3 100
2020-03-23 07:00:00 10.7 8 Norte 15 Norte 1.6 1002.3 1 99
2020-03-23 06:00:00 10.6 9 Norte 13 Norte 0.4 1001.9 0.7 98
2020-03-23 05:00:00 10.5 5 Norte 9 Norte 0.6 1001.5 0.3 99
2020-03-23 04:00:00 10.7 4 Norte 13 Norte 2.1 1001.3 -0.1 99
2020-03-23 03:00:00 10.8 10 Norte 17 Norte 6.4 1001.2 -0.2 100
2020-03-23 02:00:00 10.8 10 Norte 17 Norte 2 1001.2 0.1 99
2020-03-23 01:00:00 10.7 12 Norte 15 Norte 2.8 1001.4 0.5 99
2020-03-23 00:00:00 11.1 4 Norte 13 Norte 2.3 1001.4 0.9 97
2020-03-22 23:00:00 11.5 9 Norte 13 Norte 0 1001.1 1.1 93
2020-03-22 22:00:00 10.9 6 Norte 11 Norte 0 1000.9 1.5 95
2020-03-22 21:00:00 10.3 0 Calma 11 Noroeste 0 1000.5 1.9 94
2020-03-22 20:00:00 11.1 -- -- -- -- 0 1000 1.9 91
2020-03-22 19:00:00 12.5 9 Sudeste 17 Sudeste 0 999.4 1.9 87
2020-03-22 18:00:00 14 9 Sudeste 17 Este 0 998.6 0.9 80
2020-03-22 17:00:00 14.8 11 Este 18 Este 0 998.1 0.2 74
2020-03-22 16:00:00 15.8 11 Este 18 Sudeste 0 997.5 -0.6 68
2020-03-22 15:00:00 16 13 Nordeste 18 Nordeste 0 997.7 -0.6 67
2020-03-22 14:00:00 15.6 13 Este 22 Este 0 997.9 -0.2 70
2020-03-22 13:00:00 15.7 8 Este 15 Este 0 998.1 0.2 69
2020-03-22 12:00:00 15.1 12 Nordeste 21 Nordeste 0 998.3 0.6 73
2020-03-22 11:00:00 15.4 11 Nordeste 18 Nordeste 0 998.1 0.7 77
2020-03-22 10:00:00 14 10 Norte 15 Norte 0 997.9 1 86
2020-03-22 09:00:00 12 10 Norte 18 Nordeste 0 997.7 1.2 97
2020-03-22 08:00:00 10.6 11 Norte 17 Norte 0 997.4 1.1 100
2020-03-22 07:00:00 10 9 Norte 13 Norte 0 996.9 0.5 100
2020-03-22 06:00:00 10.2 4 Norte 13 Norte 0 996.5 -0.2 100
2020-03-22 05:00:00 10 9 Norte 13 Norte 0 996.3 -0.7 100
2020-03-22 04:00:00 9.9 4 Norte 8 Este 0 996.4 -0.7 99
2020-03-22 03:00:00 10.4 4 Nordeste -- -- 0 996.7 -0.6 99
2020-03-22 02:00:00 10.9 0 Calma 5 Nordeste 0 997 -0.7 99
2020-03-22 01:00:00 11.1 2 Norte 8 Norte 0 997.1 -0.6 97
2020-03-22 00:00:00 11.6 5 Norte 9 Norte 0 997.3 -0.3 97
2020-03-21 23:00:00 11.6 5 Norte -- -- 0 997.7 0.4 98
2020-03-21 22:00:00 11.8 3 Nordeste 8 Nordeste 0.3 997.7 1 96
2020-03-21 21:00:00 12 5 Oeste 5 Noroeste 0 997.6 1.4 93
2020-03-21 20:00:00 12.2 3 Sur 13 Sudeste 0 997.3 1.1 89
2020-03-21 19:00:00 13.3 10 Sudeste 17 Este 0 996.7 0.1 83
2020-03-21 18:00:00 15.1 12 Este 21 Sudeste 0 996.2 -1 72
2020-03-21 17:00:00 16.7 12 Este 18 Este 0 996.2 -1.6 62
2020-03-21 16:00:00 16.3 7 Este 18 Nordeste 0 996.6 -2.1 57
2020-03-21 15:00:00 15.8 6 Nordeste 18 Norte 0 997.2 -2.1 64
2020-03-21 14:00:00 15.5 8 Norte 21 Norte 0 997.8 -2 64
2020-03-21 13:00:00 15.1 10 Norte 21 Nordeste 0 998.7 -1.1 67
2020-03-21 12:00:00 12.4 10 Norte 13 Norte 0 999.3 -0.6 79
2020-03-21 11:00:00 9.7 0 Calma 9 Este 0 999.8 -0.1 83
2020-03-21 10:00:00 9.3 5 Nordeste 8 Nordeste 0 999.8 0 89
2020-03-21 09:00:00 7.3 3 Nordeste 5 Nordeste 0 999.9 0 91
2020-03-21 08:00:00 4.6 5 Norte 8 Nordeste 0 999.9 -0.2 95
2020-03-21 07:00:00 3.7 4 Norte 8 Noroeste 0 999.8 -0.9 94
2020-03-21 06:00:00 3.9 4 Sudeste 9 Norte 0 999.9 -1.4 93
2020-03-21 05:00:00 5.7 7 Noroeste 13 Noroeste 0 1000.1 -1.4 89
2020-03-21 04:00:00 4.2 7 Norte 15 Noroeste 0 1000.7 -1.2 93
2020-03-21 03:00:00 4 0 Calma 8 Norte 0 1001.3 -1.3 97
2020-03-21 02:00:00 4.6 3 Norte 15 Noroeste 0 1001.5 -1.4 95
2020-03-21 01:00:00 5.7 7 Noroeste 11 Noroeste 0 1001.9 -1.2 97
2020-03-21 00:00:00 5.7 5 Nordeste 9 Norte 0 1002.6 -0.4 96
2020-03-20 23:00:00 6.7 -- -- -- -- 0 1002.9 0 94
2020-03-20 22:00:00 7.8 6 Nordeste 8 Este 0 1003.1 0.2 91
2020-03-20 21:00:00 9.5 4 Sudoeste 9 Sudeste 0 1003 0.3 86
2020-03-20 20:00:00 10.3 8 Sur 11 Sur 0 1002.9 0.2 84
2020-03-20 19:00:00 12.3 10 Sudeste 18 Sudeste 0 1002.9 0.1 79
2020-03-20 18:00:00 15.1 16 Sur 22 Sur 0 1002.7 -0.4 58
2020-03-20 17:00:00 15.8 16 Sudeste 24 Sudeste 0 1002.7 -0.9 64
2020-03-20 16:00:00 18.1 10 Sur 24 Sur 0 1002.8 -1.5 43
2020-03-20 15:00:00 18.2 15 Sudoeste 24 Sudoeste 0 1003.1 -1.8 42
2020-03-20 14:00:00 17.6 5 Sudeste 17 Sur 0 1003.6 -1.8 51
2020-03-20 13:00:00 16.9 10 Sur 18 Sudeste 0 1004.3 -1.2 53
2020-03-20 12:00:00 16.1 6 Sur 13 Sur 0 1004.9 -0.5 57
2020-03-20 11:00:00 14.3 4 Este 13 Sudeste 0 1005.4 0.5 73
2020-03-20 10:00:00 9.8 4 Nordeste 9 Este 0 1005.5 0.8 90
2020-03-20 09:00:00 6.3 4 Este 9 Este 0 1005.4 0.7 100
2020-03-20 08:00:00 3.7 0 Calma 5 Norte 0 1004.9 0.4 100
2020-03-20 07:00:00 3.5 0 Calma 8 Norte 0 1004.7 0.1 100
2020-03-20 06:00:00 2 0 Calma 9 Oeste 0 1004.7 -0.3 100
2020-03-20 05:00:00 2.7 4 Oeste 5 Oeste 0 1004.5 -1 99
2020-03-20 04:00:00 2.8 2 Sur -- -- 0 1004.6 -1 98
2020-03-20 03:00:00 3.5 6 Nordeste 9 Noroeste 0 1005 -1 98
2020-03-20 02:00:00 4 3 Oeste 5 Oeste 0 1005.5 -0.6 99
2020-03-20 01:00:00 4.1 0 Calma 5 Nordeste 0 1005.6 -0.6 98
2020-03-20 00:00:00 4.8 0 Calma -- -- 0 1006 -0.2 96
2020-03-19 23:00:00 6.3 0 Calma 4 Sudoeste 0 1006.1 0 95
2020-03-19 22:00:00 7.3 0 Calma 4 Nordeste 0 1006.2 0.2 92
2020-03-19 21:00:00 8 2 Nordeste 5 Sur 0 1006.2 0.2 88
2020-03-19 20:00:00 10.3 4 Sur 11 Sur 0 1006.1 0.2 82
2020-03-19 19:00:00 11.6 8 Sur 15 Sur 0 1006 0.1 80
2020-03-19 18:00:00 14.9 13 Sur 21 Sur 0 1006 -0.2 71
2020-03-19 17:00:00 16.5 15 Sur 24 Sudeste 0 1005.9 -0.9 67
2020-03-19 16:00:00 17.9 14 Sur 24 Sudeste 0 1005.9 -1.5 63
2020-03-19 15:00:00 18 14 Sudeste 22 Sudeste 0 1006.2 -1.8 66
2020-03-19 14:00:00 19.3 9 Sudeste 21 Este 0 1006.8 -1.8 53
2020-03-19 13:00:00 18.6 8 Sudeste 17 Sudeste 0 1007.4 -1.2 45
2020-03-19 12:00:00 17.3 10 Nordeste 17 Nordeste 0 1008 -0.5 62
2020-03-19 11:00:00 15.7 5 Este 11 Nordeste 0 1008.6 0.3 69
2020-03-19 10:00:00 13 6 Nordeste 9 Este 0 1008.6 0.4 82
2020-03-19 09:00:00 9.3 4 Este 8 Este 0 1008.5 0.4 89
2020-03-19 08:00:00 5.4 0 Calma 4 Este 0 1008.3 0.1 99
2020-03-19 07:00:00 3.1 0 Calma 4 Nordeste 0 1008.2 -0.1 99
2020-03-19 06:00:00 3.5 2 Nordeste 5 Nordeste 0 1008.1 -0.6 99
2020-03-19 05:00:00 4.4 3 Nordeste 4 Nordeste 0 1008.2 -1 98
2020-03-19 04:00:00 4.6 0 Calma 4 Nordeste 0 1008.3 -1.1 97
2020-03-19 03:00:00 5.5 0 Calma -- -- 0 1008.7 -0.9 97
2020-03-19 02:00:00 6 0 Calma -- -- 0 1009.2 -0.5 97
2020-03-19 01:00:00 6.2 0 Calma 4 Nordeste 0 1009.4 -0.2 95
2020-03-19 00:00:00 6.7 0 Calma 4 Este 0 1009.6 0.2 95
2020-03-18 23:00:00 7.4 2 Este 5 Oeste 0 1009.7 0.3 95
2020-03-18 22:00:00 8 4 Oeste 5 Sur 0 1009.6 0.3 88
2020-03-18 21:00:00 9.3 0 Calma 8 Oeste 0 1009.4 0.2 84
2020-03-18 20:00:00 11 5 Oeste 8 Oeste 0 1009.4 0.1 78
2020-03-18 19:00:00 12.8 -- -- -- -- 0 1009.3 -0.2 77
2020-03-18 18:00:00 13.7 7 Sudoeste 17 Sudoeste 0 1009.2 -0.6 75
2020-03-18 17:00:00 15.3 12 Sudoeste 22 Sur 0 1009.3 -1.2 72
2020-03-18 16:00:00 18.3 3 Noroeste 9 Oeste 0 1009.5 -1.7 57
2020-03-18 15:00:00 18.5 6 Oeste 11 Oeste 0 1009.8 -2.1 55
2020-03-18 14:00:00 18.9 5 Sur 15 Sur 0 1010.5 -2 53
2020-03-18 13:00:00 17.6 0 Calma 9 Sur 0 1011.2 -1.3 55
2020-03-18 12:00:00 16.5 0 Calma 11 Sudoeste 0 1011.9 -0.5 56
2020-03-18 11:00:00 14.9 2 Sudoeste 9 Sur 0 1012.5 0.5 69
2020-03-18 10:00:00 11.7 5 Oeste 8 Oeste 0 1012.5 0.6 89
2020-03-18 09:00:00 9.3 3 Este 8 Norte 0 1012.4 0.3 96
2020-03-18 08:00:00 7.3 0 Calma 9 Nordeste 0 1012 0 99
2020-03-18 07:00:00 7 4 Norte -- -- 0 1011.9 -0.2 99
2020-03-18 06:00:00 7.9 4 Norte 5 Nordeste 0 1012.1 -0.3 98
2020-03-18 05:00:00 7.4 0 Calma 5 Nordeste 0 1012 -0.8 97
2020-03-18 04:00:00 7.8 4 Norte 8 Noroeste 0 1012.1 -1.1 98
2020-03-18 03:00:00 8.2 3 Oeste 5 Norte 0 1012.4 -1.1 96
2020-03-18 02:00:00 8.6 0 Calma 5 Norte 0 1012.8 -1.1 98
2020-03-18 01:00:00 8.8 6 Norte 8 Norte 0 1013.2 -0.6 97
2020-03-18 00:00:00 9.8 0 Calma 15 Norte 0 1013.5 0.1 96
2020-03-17 23:00:00 10.7 12 Norte 17 Norte 0 1013.9 1.1 98
2020-03-17 22:00:00 11 11 Norte 17 Norte 0 1013.8 1.3 96
2020-03-17 21:00:00 11.4 10 Norte 15 Norte 0 1013.4 1 92
2020-03-17 20:00:00 11.6 9 Norte 13 Norte 0 1012.8 0.5 92
2020-03-17 19:00:00 12.3 9 Nordeste 13 Nordeste 0 1012.5 -0.2 89
2020-03-17 18:00:00 13.8 9 Norte 17 Nordeste 0 1012.4 -0.6 81
2020-03-17 17:00:00 14.6 10 Nordeste 21 Nordeste 0 1012.3 -1.1 76
2020-03-17 16:00:00 14.8 15 Nordeste 22 Norte 0 1012.7 -1.1 79
2020-03-17 15:00:00 14.7 15 Norte 22 Nordeste 0 1013 -0.6 79
2020-03-17 14:00:00 14.2 14 Nordeste 22 Nordeste 0 1013.4 0 86
2020-03-17 13:00:00 13.3 14 Norte 30 Nordeste 0 1013.8 0.7 90
2020-03-17 12:00:00 13.7 17 Norte 28 Norte 0 1013.6 1.1 89
2020-03-17 11:00:00 12.8 18 Norte 28 Norte 0 1013.4 1.6 91
2020-03-17 10:00:00 12.2 14 Norte 26 Norte 0 1013.1 1.6 93
2020-03-17 09:00:00 11.9 14 Norte 26 Norte 0 1012.5 1.8 94
2020-03-17 08:00:00 11.4 17 Norte 28 Norte 0 1011.8 1.4 93
2020-03-17 07:00:00 11.4 17 Norte 24 Norte 0 1011.5 1.6 93
2020-03-17 06:00:00 11.4 14 Norte 21 Norte 0 1010.7 0.7 93
2020-03-17 05:00:00 11.6 13 Norte 17 Norte 0 1010.4 0.5 91
2020-03-17 04:00:00 11.6 13 Norte 24 Norte 0 1009.9 0.4 90
2020-03-17 03:00:00 11.4 15 Norte 26 Norte 0 1010 0.4 92
2020-03-17 02:00:00 11.4 18 Norte 26 Norte 0 1009.9 0.7 93
2020-03-17 01:00:00 11.2 17 Norte 24 Norte 0 1009.5 0.9 95
2020-03-17 00:00:00 11.3 19 Norte 30 Norte 0 1009.6 2 96
2020-03-16 23:00:00 11.3 21 Norte 30 Norte 0 1009.2 2.3 97
2020-03-16 22:00:00 11.3 17 Norte 26 Norte 0 1008.6 2.9 98
2020-03-16 21:00:00 11.4 16 Norte 24 Norte 0.2 1007.6 3 100
2020-03-16 20:00:00 11.5 14 Norte 21 Norte 4.4 1006.9 2.7 100
2020-03-16 19:00:00 11.5 11 Nordeste 22 Nordeste 4.1 1005.7 1.9 100
2020-03-16 18:00:00 11.6 14 Nordeste 24 Norte 1.4 1004.6 1.4 100
2020-03-16 17:00:00 11.3 15 Norte 28 Norte 0.6 1004.2 1.2 100
2020-03-16 16:00:00 11.3 17 Norte 24 Norte 9.2 1003.8 1 100
2020-03-16 15:00:00 11.6 13 Nordeste 24 Nordeste 3.5 1003.2 0.8 97
2020-03-16 14:00:00 12.3 6 Nordeste 26 Este 3.9 1003 0.2 97
2020-03-16 13:00:00 12.8 7 Nordeste 22 Nordeste 1.8 1002.8 0.6 97
2020-03-16 12:00:00 12.9 13 Nordeste 22 Este 1 1002.4 0.7 95
2020-03-16 11:00:00 12.8 5 Nordeste 26 Nordeste 0 1002.8 1.8 90
2020-03-16 10:00:00 12.8 14 Norte 21 Norte 0 1002.2 1.7 87
2020-03-16 09:00:00 12.2 10 Norte 17 Norte 0 1001.7 1.9 91
2020-03-16 08:00:00 11.4 10 Norte 15 Norte 0 1001 1.2 94
2020-03-16 07:00:00 10.9 6 Norte 13 Norte 0 1000.5 0.5 93
2020-03-16 06:00:00 10.7 9 Norte 11 Norte 0 999.8 -0.9 95
2020-03-16 05:00:00 10.8 6 Norte 9 Norte 0 999.8 -1.2 95
2020-03-16 04:00:00 10.9 5 Este 9 Este 0 1000 -1 94
2020-03-16 03:00:00 11.7 6 Sudeste 11 Sudeste 0 1000.7 -0.6 89
2020-03-16 02:00:00 11.8 8 Sudeste 13 Sudeste 0 1001 -0.4 91
2020-03-16 01:00:00 11.9 7 Sur 13 Sur 0 1001 -0.1 92
2020-03-16 00:00:00 12.1 10 Sur 21 Sur 0 1001.3 0.6 92
2020-03-15 23:00:00 12.1 14 Sur 18 Sur 0 1001.4 1 94
2020-03-15 22:00:00 11.7 10 Sur 22 Sur 0 1001.1 0.9 94
2020-03-15 21:00:00 11.7 13 Sur 17 Sur 0 1000.7 0.8 93
2020-03-15 20:00:00 12.5 13 Sur 28 Sur 0 1000.4 0.7 89
2020-03-15 19:00:00 12.9 23 Sur 42 Sur 0 1000.2 0.4 86
2020-03-15 18:00:00 13.9 30 Sur 42 Sur 0 999.9 -0.1 82
2020-03-15 17:00:00 15.7 31 Sur 48 Sur 0 999.7 -0.9 76
2020-03-15 16:00:00 16.5 37 Sur 50 Sur 0 999.8 -1.6 73
2020-03-15 15:00:00 16.9 39 Sur 50 Sur 0 1000 -2.3 69
2020-03-15 14:00:00 17.4 31 Sur 42 Sur 0 1000.6 -2.2 68
2020-03-15 13:00:00 17.1 30 Sur 41 Sur 0 1001.4 -1.8 67
2020-03-15 12:00:00 16.5 27 Sur 37 Sur 0 1002.3 -0.9 68
2020-03-15 11:00:00 15.5 19 Sur 28 Sur 0 1002.8 -0.3 76
2020-03-15 10:00:00 12.6 10 Sur 15 Sur 0 1003.2 0.3 87
2020-03-15 09:00:00 10.2 3 Sur 8 Sudeste 0 1003.2 0.3 89
2020-03-15 08:00:00 8.3 0 Calma 8 Oeste 0 1003.1 0.1 95
2020-03-15 07:00:00 8.3 4 Sudoeste 8 Sur 0 1002.9 -0.8 93
2020-03-15 06:00:00 8.4 3 Sur 9 Oeste 0 1002.9 -1.2 96
2020-03-15 05:00:00 8.1 6 Oeste 9 Oeste 0 1003 -1.5 94
2020-03-15 04:00:00 7.9 6 Sudoeste 11 Sur 0 1003.7 -1 94
2020-03-15 03:00:00 9.1 0 Calma 5 Oeste 0 1004.1 -0.8 85
2020-03-15 02:00:00 9.2 4 Noroeste 5 Noroeste 0 1004.5 -0.5 83
2020-03-15 01:00:00 9.5 7 Norte 9 Norte 0 1004.7 -0.1 82
2020-03-15 00:00:00 8.8 3 Norte 11 Norte 0 1004.9 0.3 84
2020-03-14 23:00:00 9.5 6 Norte 15 Norte 0 1005 0.6 82
2020-03-14 22:00:00 10.8 6 Noroeste 8 Noroeste 0 1004.8 0.9 93
2020-03-14 21:00:00 11.7 3 Noroeste 8 Sudoeste 0 1004.6 0.8 89
2020-03-14 20:00:00 12.3 5 Sudoeste 15 Sudoeste 0 1004.4 0.8 88
2020-03-14 19:00:00 12.4 13 Sur 21 Sur 0 1003.9 0.3 86
2020-03-14 18:00:00 13 16 Sur 24 Sur 0 1003.8 0.1 83
2020-03-14 17:00:00 13.4 17 Sur 26 Sur 0 1003.6 -0.4 82
2020-03-14 16:00:00 13.9 21 Sur 28 Sur 0 1003.6 -0.7 80
2020-03-14 15:00:00 14.8 17 Sur 24 Sur 0 1003.7 -0.8 78
2020-03-14 14:00:00 15.3 14 Sur 24 Sur 0 1004 -0.7 78
2020-03-14 13:00:00 15.9 8 Sur 18 Sur 0 1004.3 -0.4 74
2020-03-14 12:00:00 16 4 Sudoeste 13 Sur 0 1004.5 0.1 69
2020-03-14 11:00:00 14.5 5 Sudeste 11 Norte 0 1004.7 1.1 66
2020-03-14 10:00:00 12.7 10 Norte 17 Norte 0 1004.7 1.2 70
2020-03-14 09:00:00 11.3 12 Norte 22 Nordeste 0 1004.4 1.6 76
2020-03-14 08:00:00 11.3 4 Norte 9 Norte 0 1003.6 0.9 82
2020-03-14 07:00:00 11.2 8 Norte 13 Norte 0 1003.5 1.1 91
2020-03-14 06:00:00 11.3 6 Nordeste 8 Nordeste 0 1002.8 0 94
2020-03-14 05:00:00 11.1 9 Nordeste 11 Nordeste 0 1002.7 -0.3 96
2020-03-14 04:00:00 11.1 8 Nordeste 9 Nordeste 0 1002.4 -0.6 96
2020-03-14 03:00:00 11.5 4 Noroeste 8 Noroeste 0 1002.8 -0.1 96
2020-03-14 02:00:00 11.6 4 Este 8 Norte 0 1003 0 97
2020-03-14 01:00:00 11.2 3 Oeste -- -- 0 1003 0.1 96
2020-03-14 00:00:00 12 3 Nordeste -- -- 0 1002.9 0.3 95
2020-03-13 23:00:00 12 3 Oeste 11 Sudoeste 0 1003 0.6 95
2020-03-13 22:00:00 12.1 6 Sudoeste 11 Sudoeste 0 1002.9 0.7 94
2020-03-13 21:00:00 13 8 Sudoeste 11 Sur 0 1002.6 0.7 88
2020-03-13 20:00:00 13.5 7 Sudoeste 13 Sur 0 1002.4 0.6 84
2020-03-13 19:00:00 14.5 10 Sur 18 Sur 0 1002.2 0.3 78
2020-03-13 18:00:00 16 15 Sur 18 Sur 0 1001.9 -0.1 69
2020-03-13 17:00:00 17.3 9 Sur 18 Sur 0 1001.8 -0.7 66
2020-03-13 16:00:00 17.9 15 Sur 21 Sur 0 1001.9 -1.7 66
2020-03-13 15:00:00 20.5 8 Este 21 Este 0 1002 -2.2 52
2020-03-13 14:00:00 20.4 4 Sur 13 Este 0 1002.5 -1.9 52
2020-03-13 13:00:00 17.6 10 Nordeste 22 Norte 0 1003.6 -1 65
2020-03-13 12:00:00 17.3 14 Norte 21 Norte 0 1004.2 -0.4 64
2020-03-13 11:00:00 14.9 13 Nordeste 22 Nordeste 0 1004.4 0.5 69
2020-03-13 10:00:00 13.6 16 Nordeste 24 Nordeste 0 1004.6 1.3 75
2020-03-13 09:00:00 11.9 12 Nordeste 18 Nordeste 0 1004.6 1.7 85
2020-03-13 08:00:00 9.6 2 Norte 9 Norte 0 1003.9 1.3 93
2020-03-13 07:00:00 10.1 5 Norte 15 Norte 0 1003.3 0.2 91
2020-03-13 06:00:00 10.2 9 Noroeste 11 Norte 0 1002.9 0 94
2020-03-13 05:00:00 9 6 Oeste 15 Norte 0 1002.6 -1 96
2020-03-13 04:00:00 8.6 13 Norte 17 Norte 0 1003.1 -0.9 97
2020-03-13 03:00:00 9.2 0 Calma 11 Norte 0 1002.9 -1.6 96
2020-03-13 02:00:00 8.8 5 Norte 8 Norte 0 1003.6 -0.6 95
2020-03-13 01:00:00 9.8 0 Calma 4 Oeste 0 1004 0 93
2020-03-13 00:00:00 10.2 0 Calma 5 Sudoeste 0 1004.5 0.8 89
2020-03-12 23:00:00 10.6 2 Norte 13 Norte 0 1004.2 0.5 89
2020-03-12 22:00:00 10.7 8 Norte 11 Norte 0 1004 0.8 88
2020-03-12 21:00:00 12.1 3 Noroeste 8 Oeste 0 1003.7 1.4 80
2020-03-12 20:00:00 13.2 4 Sudoeste 11 Sudeste 0 1003.7 1.8 76
2020-03-12 19:00:00 14.4 9 Sudeste 15 Sudeste 0 1003.2 1.1 72
2020-03-12 18:00:00 18.4 10 Sur 18 Este 0 1002.3 -0.2 69
2020-03-12 17:00:00 20.1 13 Norte 24 Nordeste 0 1001.9 -1.5 64
2020-03-12 16:00:00 22.6 6 Este 17 Sudeste 0 1002.1 -2.2 53
2020-03-12 15:00:00 22.3 6 Sudeste 21 Sur 0 1002.5 -2.1 56
2020-03-12 14:00:00 21.5 11 Sur 26 Sur 0 1003.4 -1.8 60
2020-03-12 13:00:00 22.3 9 Sur 15 Sur 0 1004.3 -1.2 54
2020-03-12 12:00:00 20.4 5 Nordeste 9 Norte 0 1004.6 -0.8 59
2020-03-12 11:00:00 17.9 3 Sur 8 Sur 0 1005.2 0.3 68
2020-03-12 10:00:00 13.8 3 Nordeste 5 Nordeste 0 1005.5 1.1 83
2020-03-12 09:00:00 11.2 0 Calma 8 Nordeste 0 1005.4 1.2 93
2020-03-12 08:00:00 6.6 0 Calma 4 Este 0 1004.9 0.7 100
2020-03-12 07:00:00 5.2 0 Calma 4 Sur 0 1004.4 -0.1 100
2020-03-12 06:00:00 5.4 3 Norte 5 Oeste 0 1004.2 -0.7 100
2020-03-12 05:00:00 5.7 4 Nordeste 8 Noroeste 0 1004.2 -1.2 100
2020-03-12 04:00:00 6.2 3 Nordeste 8 Nordeste 0 1004.5 -1.2 100
2020-03-12 03:00:00 6.9 3 Oeste 5 Sudoeste 0 1004.9 -1.2 100
2020-03-12 02:00:00 7.6 3 Sudoeste 5 Sur 0 1005.4 -0.8 100
2020-03-12 01:00:00 8.4 3 Este 5 Oeste 0 1005.7 -0.6 99
2020-03-12 00:00:00 9.2 5 Oeste 8 Oeste 0 1006.1 0 99
2020-03-11 23:00:00 9.1 0 Calma 5 Sur 0 1006.2 0.1 95
2020-03-11 22:00:00 9.9 0 Calma 8 Sudoeste 0 1006.3 0.6 93
2020-03-11 21:00:00 11 2 Sur 8 Sudoeste 0 1006.1 0.8 89
2020-03-11 20:00:00 12.4 6 Sudoeste 15 Sur 0 1006.1 1 88
2020-03-11 19:00:00 13.2 12 Sur 17 Sur 0 1005.7 0.4 85
2020-03-11 18:00:00 17 13 Sur 21 Sur 0 1005.3 -0.3 73
2020-03-11 17:00:00 18.9 14 Sudoeste 22 Sudoeste 0 1005.1 -1 63
2020-03-11 16:00:00 20.2 13 Sur 21 Sudoeste 0 1005.3 -1.7 57
2020-03-11 15:00:00 20.9 13 Sur 26 Sudeste 0 1005.6 -2.1 52
2020-03-11 14:00:00 20.1 10 Sur 21 Sur 0 1006.1 -1.9 51
2020-03-11 13:00:00 19.7 8 Sur 17 Sur 0 1007 -1.2 56
2020-03-11 12:00:00 18.1 9 Sur 17 Sur 0 1007.7 -0.1 56
2020-03-11 11:00:00 16.1 8 Sur 13 Sur 0 1008 0.6 64
2020-03-11 10:00:00 14 4 Sur 8 Oeste 0 1008.2 1.1 73
2020-03-11 09:00:00 10 2 Sudeste 5 Nordeste 0 1007.8 1.2 87
2020-03-11 08:00:00 5.6 6 Nordeste 9 Nordeste 0 1007.4 0.8 98
2020-03-11 07:00:00 4.5 5 Nordeste 11 Norte 0 1007.1 0.6 98
2020-03-11 06:00:00 4.3 7 Norte 11 Norte 0 1006.6 0 98
2020-03-11 05:00:00 4.7 3 Sur 8 Norte 0 1006.6 -0.6 97
2020-03-11 04:00:00 5.1 3 Norte 9 Nordeste 0 1006.5 -0.5 96
2020-03-11 03:00:00 6.4 6 Norte 9 Norte 0 1006.6 -0.3 94
2020-03-11 02:00:00 5.4 7 Nordeste 9 Nordeste 0 1007.2 -0.1 96
2020-03-11 01:00:00 6.9 0 Calma 11 Sur 0 1007 -0.1 94
2020-03-11 00:00:00 8 3 Oeste 5 Oeste 0 1006.9 0 92
2020-03-10 23:00:00 7.7 4 Nordeste 9 Nordeste 0 1007.3 0.3 92
2020-03-10 22:00:00 8.6 0 Calma 9 Nordeste 0 1007.1 0.5 89
2020-03-10 21:00:00 9.8 7 Oeste 9 Oeste 0 1006.9 0.3 84
2020-03-10 20:00:00 11 4 Sudoeste 5 Sudoeste 0 1007 0.9 77
2020-03-10 19:00:00 12.4 0 Calma 13 Sur 0 1006.6 0.7 72
2020-03-10 18:00:00 14.3 8 Sur 17 Sur 0 1006.6 0.4 64
2020-03-10 17:00:00 15.5 13 Sur 21 Sur 0 1006.1 -0.8 63
2020-03-10 16:00:00 17.5 12 Sur 18 Sur 0 1005.9 -1.9 54
2020-03-10 15:00:00 17.7 8 Sur 18 Sur 0 1006.2 -1.8 51
2020-03-10 14:00:00 16.9 8 Sudeste 18 Sudeste 0 1006.9 -1.1 55
2020-03-10 13:00:00 16.6 4 Sur 21 Sur 0 1007.8 -0.3 54
2020-03-10 12:00:00 15.3 9 Sur 21 Sudoeste 0 1008 -0.1 56
2020-03-10 11:00:00 13.2 11 Sur 18 Sur 0 1008 0.4 67
2020-03-10 10:00:00 9.9 6 Sur 13 Oeste 0 1008.1 0.7 85
2020-03-10 09:00:00 6.2 8 Oeste 11 Oeste 0 1008.1 1.1 99
2020-03-10 08:00:00 4.6 5 Oeste 11 Nordeste 0 1007.6 0.9 99
2020-03-10 07:00:00 3.9 5 Nordeste 9 Oeste 0 1007.4 0.9 98
2020-03-10 06:00:00 4 5 Oeste 13 Nordeste 0 1007 0.7 98
2020-03-10 05:00:00 3.6 10 Nordeste 13 Nordeste 0 1006.7 -0.2 97
2020-03-10 04:00:00 3.8 9 Oeste 18 Sudeste 0 1006.5 0.4 96
2020-03-10 03:00:00 4.3 7 Noroeste 13 Oeste 0 1006.3 0.2 97
2020-03-10 02:00:00 4.3 3 Norte 11 Norte 0 1006.9 0.8 94
2020-03-10 01:00:00 4.8 5 Este 11 Este 0 1006.1 0.7 91
2020-03-10 00:00:00 5.8 9 Noroeste 11 Noroeste 0 1006.1 1.3 92
2020-03-09 23:00:00 7.2 2 Norte 13 Este 0 1006.1 2 81
2020-03-09 22:00:00 8.1 3 Sudeste 9 Sudeste 0 1005.4 1.6 77
2020-03-09 21:00:00 9.3 6 Sudeste 11 Sudeste 0 1004.8 1.8 81
2020-03-09 20:00:00 9.8 7 Sur 13 Sudoeste 0 1004.1 1.9 80
2020-03-09 19:00:00 10.8 6 Sudoeste 15 Sur 0 1003.8 1.4 77
2020-03-09 18:00:00 13 12 Sudoeste 28 Sudoeste 0 1003 0.4 68
2020-03-09 17:00:00 13.2 18 Sudoeste 32 Sur 0 1002.2 -0.7 70
2020-03-09 16:00:00 12.5 24 Sur 33 Sur 0 1002.4 -0.8 78
2020-03-09 15:00:00 14.9 21 Sur 30 Sur 0 1002.6 -1 70
2020-03-09 14:00:00 13.4 14 Sudeste 26 Sur 0 1002.9 -0.7 76
2020-03-09 13:00:00 13.7 14 Sudeste 22 Sudeste 0 1003.2 -0.4 71
2020-03-09 12:00:00 14.7 10 Este 18 Sudeste 0 1003.6 0 73
2020-03-09 11:00:00 14.5 5 Sudeste 9 Sudeste 0 1003.6 0.3 69
2020-03-09 10:00:00 10.6 3 Este 8 Este 0 1003.6 0.1 86
2020-03-09 09:00:00 9 3 Noroeste 11 Nordeste 0 1003.6 0.3 99
2020-03-09 08:00:00 8.9 0 Calma 13 Norte 0.4 1003.3 0.3 98
2020-03-09 07:00:00 8.4 9 Norte 18 Nordeste 0 1003.5 0.8 99
2020-03-09 06:00:00 8.1 5 Nordeste 9 Nordeste 0.1 1003.3 0 97
2020-03-09 05:00:00 7.4 8 Norte 11 Norte 0 1003 -1.2 99
2020-03-09 04:00:00 7.1 2 Sudeste 5 Sudeste 0 1002.7 -1.5 97
2020-03-09 03:00:00 6.4 5 Oeste 11 Nordeste 0 1003.3 -1.1 99
2020-03-09 02:00:00 5.8 5 Norte 9 Nordeste 0 1004.2 -0.4 97
2020-03-09 01:00:00 6.7 6 Noroeste 11 Noroeste 0 1004.2 -0.6 97
2020-03-09 00:00:00 7.3 4 Sudoeste 8 Oeste 0 1004.4 -0.3 94